This demonstration page uses our WeatherBlox Daily Observations layout. Learn more.

38.89511, -77.03637

Hourly Observations for July 3, 2017

Temp ( °F °C ) Dew Point ( °F °C ) Humidity (%) Winds ( mph kmh ) Pressure ( in mb ) Visibility ( mi km ) Precip ( " mm )
12:52 am 00:52 Cloudy 80 26.7 74 23.3 82 82 SSW 6 9 30 1016 10 16.09344 0 0
1:52 am 01:52 Cloudy 80 26.7 73 22.8 79 79 SW 3 6 29.97 1015 10 16.09344 0 0
2:52 am 02:52 Mostly Cloudy 79 26.1 71 21.7 77 77 N 3 6 29.97 1015 10 16.09344 0 0
3:52 am 03:52 Mostly Cloudy 77 25 72 22.2 85 85 Calm 29.97 1015 10 16.09344 0 0
4:52 am 04:52 Partly Cloudy 78 25.6 71 21.7 79 79 Calm 30 1016 10 16.09344 0 0
5:52 am 05:52 Mostly Cloudy 75 23.9 70 21.1 84 84 N 7 11 30 1016 10 16.09344 0 0
6:52 am 06:52 Mostly Cloudy 78 25.6 69 20.6 74 74 N 6 9 30.03 1017 10 16.09344 0 0
7:52 am 07:52 Partly Cloudy 81 27.2 67 19.4 62 62 NNW 8 13 30.03 1017 10 16.09344 0 0
8:52 am 08:52 Mostly Sunny 84 28.9 67 19.4 57 57 NNW 9 15 30.03 1017 10 16.09344 0 0
9:52 am 09:52 Partly Cloudy 86 30 65 18.3 49 49 NNW 13 20 30.03 1017 10 16.09344 0 0
10:52 am 10:52 Partly Cloudy 88 31.1 65 18.3 46 46 N 12 19 30.03 1017 10 16.09344 0 0
11:52 am 11:52 Partly Cloudy 89 31.7 63 17.2 42 42 NW 10 17 30.03 1017 10 16.09344 0 0
12:52 pm 12:52 Mostly Cloudy 90 32.2 61 16.1 38 38 N 7 11 30 1016 10 16.09344 0 0
1:52 pm 13:52 Mostly Cloudy 91 32.8 62 16.7 38 38 N 9 15 30 1016 10 16.09344 0 0
2:52 pm 14:52 Mostly Cloudy 90 32.2 61 16.1 38 38 N 10 17 30 1016 10 16.09344 0 0
3:52 pm 15:52 Mostly Cloudy 90 32.2 63 17.2 41 41 NW 7 11 30 1016 10 16.09344 0 0
4:52 pm 16:52 Mostly Cloudy 91 32.8 60 15.6 35 35 W 5 7 29.97 1015 10 16.09344 0 0
5:52 pm 17:52 Mostly Cloudy 89 31.7 59 15 36 36 N 5 7 29.97 1015 10 16.09344 0 0
6:52 pm 18:52 Mostly Cloudy 89 31.7 62 16.7 41 41 N 3 6 29.97 1015 10 16.09344 0 0
7:52 pm 19:52 Mostly Cloudy 87 30.6 61 16.1 42 42 SW 8 13 30 1016 10 16.09344 0 0
8:52 pm 20:52 Mostly Cloudy 85 29.4 61 16.1 45 45 SW 6 9 30 1016 10 16.09344 0 0
9:52 pm 21:52 Mostly Cloudy 83 28.3 67 19.4 59 59 S 6 9 30 1016 10 16.09344 0 0
10:52 pm 22:52 Cloudy 82 27.8 68 20 63 63 S 6 9 30.03 1017 10 16.09344 0 0
11:52 pm 23:52 Cloudy 80 26.7 71 21.7 74 74 S 5 7 30 1016 10 16.09344 0 0

Powered by AerisWeather